Time;durP1;ratioP1;P1;durP2;ratioP2;P2;SDS_P1;SDS_P2;PMS_P1;PMS_P2;Temp;Humidity;BMP_temperature;BMP_pressure;BME280_temperature;BME280_humidity;BME280_pressure;Samples;Min_cycle;Max_cycle;Signal;HPM_P1;HPM_P2
2023/07/23 00:01:01;;;;;;;7.53;6.40;;;15.20;72.30;;;;;;5043962;28;20442;-79
2023/07/23 00:03:28;;;;;;;7.10;6.50;;;15.20;72.70;;;;;;5026488;28;20596;-77
2023/07/23 00:05:57;;;;;;;8.60;7.80;;;15.20;72.40;;;;;;5043521;28;20441;-77
2023/07/23 00:08:25;;;;;;;8.30;7.50;;;15.30;72.60;;;;;;5043937;28;20513;-76
2023/07/23 00:10:58;;;;;;;7.87;7.13;;;15.10;72.70;;;;;;5043686;28;20487;-78
2023/07/23 00:13:25;;;;;;;7.90;6.57;;;15.10;73.30;;;;;;5043764;28;20500;-77
2023/07/23 00:15:52;;;;;;;7.00;6.40;;;15.10;72.80;;;;;;5044295;28;20408;-77
2023/07/23 00:18:19;;;;;;;7.63;6.80;;;15.20;72.70;;;;;;5043457;28;20444;-77
2023/07/23 00:20:46;;;;;;;6.20;5.70;;;15.20;72.60;;;;;;5043406;28;20441;-77
2023/07/23 00:23:14;;;;;;;7.87;7.17;;;15.30;72.30;;;;;;5043254;28;20473;-77
2023/07/23 00:25:42;;;;;;;9.60;6.57;;;15.30;72.50;;;;;;5043546;28;20479;-77
2023/07/23 00:28:12;;;;;;;9.33;7.20;;;15.40;72.30;;;;;;5043457;28;20457;-78
2023/07/23 00:30:39;;;;;;;7.87;7.00;;;15.50;71.70;;;;;;5043357;28;20509;-79
2023/07/23 00:33:06;;;;;;;7.70;7.00;;;15.50;71.50;;;;;;5043650;28;20485;-76
2023/07/23 00:35:33;;;;;;;8.20;7.60;;;15.50;71.80;;;;;;5043670;28;20429;-79
2023/07/23 00:38:00;;;;;;;8.00;7.27;;;15.60;71.50;;;;;;5043463;28;20499;-78
2023/07/23 00:40:27;;;;;;;10.20;7.13;;;15.60;71.30;;;;;;5044703;28;20492;-77
2023/07/23 00:42:54;;;;;;;7.30;6.70;;;15.80;70.80;;;;;;5043770;28;20515;-76
2023/07/23 00:45:24;;;;;;;6.97;6.37;;;15.80;70.50;;;;;;5042474;28;20775;-77
2023/07/23 00:47:51;;;;;;;8.70;7.10;;;15.80;70.90;;;;;;5044406;28;20415;-77
2023/07/23 00:50:18;;;;;;;7.37;5.70;;;15.80;70.90;;;;;;5043558;28;20448;-76
2023/07/23 00:52:46;;;;;;;7.90;7.20;;;15.80;70.80;;;;;;5043103;28;20456;-77
2023/07/23 00:55:16;;;;;;;6.83;6.27;;;15.90;70.00;;;;;;5043625;28;20421;-76
2023/07/23 00:57:44;;;;;;;7.50;6.70;;;16.00;70.30;;;;;;5043326;28;20409;-79
2023/07/23 01:00:12;;;;;;;7.37;6.67;;;15.80;70.50;;;;;;5041940;28;20473;-77
2023/07/23 01:02:39;;;;;;;6.77;6.17;;;15.80;71.50;;;;;;5043356;28;20442;-76
2023/07/23 01:05:07;;;;;;;6.50;6.00;;;15.60;71.60;;;;;;5043420;28;20408;-77
2023/07/23 01:07:35;;;;;;;7.73;7.03;;;15.50;71.70;;;;;;5025923;28;20408;-77
2023/07/23 01:10:03;;;;;;;7.53;6.83;;;15.50;72.20;;;;;;5041808;28;20472;-78
2023/07/23 01:12:31;;;;;;;8.63;7.80;;;15.50;72.30;;;;;;5026427;28;20459;-78
2023/07/23 01:14:59;;;;;;;7.50;6.73;;;15.40;72.10;;;;;;5044177;28;20698;-79
2023/07/23 01:17:26;;;;;;;7.30;6.70;;;15.40;72.30;;;;;;5047493;28;20448;-82
2023/07/23 01:20:04;;;;;;;8.57;7.77;;;15.40;72.70;;;;;;5055692;28;20419;-80
2023/07/23 01:22:33;;;;;;;9.90;7.50;;;15.30;73.00;;;;;;5053423;28;20686;-76
2023/07/23 01:25:01;;;;;;;8.53;7.70;;;15.30;73.70;;;;;;5043093;28;20412;-80
2023/07/23 01:27:29;;;;;;;8.57;7.87;;;15.20;74.30;;;;;;5025019;28;20419;-77
2023/07/23 01:29:56;;;;;;;8.80;7.80;;;15.10;74.90;;;;;;5042639;28;20561;-77
2023/07/23 01:32:24;;;;;;;9.73;8.20;;;15.10;75.20;;;;;;5042743;28;20622;-76
2023/07/23 01:34:52;;;;;;;8.70;8.00;;;15.00;75.50;;;;;;5042365;28;20619;-78
2023/07/23 01:37:20;;;;;;;9.80;8.80;;;14.90;76.20;;;;;;5043046;28;20469;-78
2023/07/23 01:39:49;;;;;;;8.63;7.83;;;15.00;76.90;;;;;;5042528;28;20438;-76
2023/07/23 01:42:19;;;;;;;8.57;7.87;;;14.90;76.60;;;;;;5042494;28;20748;-76
2023/07/23 01:44:46;;;;;;;9.43;8.53;;;14.90;76.50;;;;;;5041958;28;20513;-76
2023/07/23 01:47:13;;;;;;;7.90;7.30;;;14.90;76.40;;;;;;5041849;28;20449;-76
2023/07/23 01:49:40;;;;;;;11.03;8.67;;;14.90;76.30;;;;;;5041818;28;20452;-78
2023/07/23 01:52:07;;;;;;;8.80;7.97;;;15.00;76.10;;;;;;5042317;28;20528;-80
2023/07/23 01:54:34;;;;;;;9.13;8.33;;;15.10;75.70;;;;;;5024572;28;20480;-78
2023/07/23 01:57:03;;;;;;;8.33;7.53;;;15.20;75.60;;;;;;5042691;28;20448;-77
2023/07/23 01:59:29;;;;;;;11.57;10.35;;;15.30;74.90;;;;;;5041312;28;20446;-76
2023/07/23 02:01:57;;;;;;;7.87;7.07;;;15.30;75.00;;;;;;5041771;28;20453;-76
2023/07/23 02:04:23;;;;;;;7.83;7.23;;;15.30;74.80;;;;;;5041300;28;20412;-76
2023/07/23 02:06:50;;;;;;;8.83;7.93;;;15.30;74.80;;;;;;5041635;28;20847;-76
2023/07/23 02:09:17;;;;;;;8.40;7.60;;;15.30;74.70;;;;;;5024080;28;20435;-76
2023/07/23 02:11:44;;;;;;;7.77;7.07;;;15.20;75.50;;;;;;5041485;28;20429;-79
2023/07/23 02:14:11;;;;;;;8.30;7.50;;;15.10;75.50;;;;;;5040206;28;20484;-80
2023/07/23 02:16:38;;;;;;;8.77;8.07;;;15.20;75.60;;;;;;5041532;28;20446;-78
2023/07/23 02:19:05;;;;;;;7.97;7.37;;;15.10;75.60;;;;;;5041589;28;20480;-78
2023/07/23 02:21:32;;;;;;;8.03;7.23;;;15.20;75.20;;;;;;5041041;28;20469;-77
2023/07/23 02:23:59;;;;;;;8.70;7.80;;;15.10;75.30;;;;;;5041451;28;20456;-78
2023/07/23 02:26:27;;;;;;;7.60;6.90;;;15.00;75.50;;;;;;5041692;28;20501;-78
2023/07/23 02:28:53;;;;;;;8.50;7.10;;;15.10;76.20;;;;;;5041366;28;20438;-78
2023/07/23 02:31:21;;;;;;;7.37;6.77;;;15.10;76.00;;;;;;5023641;28;20468;-78
2023/07/23 02:33:48;;;;;;;9.63;7.47;;;15.20;75.60;;;;;;5040791;28;20508;-77
2023/07/23 02:36:15;;;;;;;7.90;7.10;;;15.20;75.60;;;;;;5040897;28;20464;-77
2023/07/23 02:38:43;;;;;;;8.43;7.20;;;15.00;75.80;;;;;;5041145;28;20504;-77
2023/07/23 02:41:10;;;;;;;8.33;7.53;;;15.10;75.90;;;;;;5041134;28;20436;-77
2023/07/23 02:43:37;;;;;;;8.13;7.43;;;15.00;75.90;;;;;;5023910;28;20483;-79
2023/07/23 02:46:04;;;;;;;8.30;7.60;;;15.00;76.00;;;;;;5040749;28;20521;-78
2023/07/23 02:48:31;;;;;;;8.30;7.50;;;15.00;76.70;;;;;;5039448;28;20562;-79
2023/07/23 02:50:58;;;;;;;8.90;8.00;;;14.90;76.80;;;;;;5041295;28;20500;-76
2023/07/23 02:53:26;;;;;;;8.40;7.50;;;14.80;77.20;;;;;;5040979;28;20475;-79
2023/07/23 02:55:54;;;;;;;8.50;7.70;;;14.70;77.80;;;;;;5041033;28;20505;-78
2023/07/23 02:58:21;;;;;;;8.27;7.57;;;14.80;77.40;;;;;;5040138;28;20509;-78
2023/07/23 03:00:49;;;;;;;9.90;7.67;;;14.80;77.70;;;;;;5040684;28;20434;-78
2023/07/23 03:03:16;;;;;;;8.10;7.40;;;14.80;77.50;;;;;;5040557;28;20517;-77
2023/07/23 03:05:43;;;;;;;9.30;7.70;;;14.80;77.40;;;;;;5041035;28;20446;-77
2023/07/23 03:08:11;;;;;;;8.37;7.60;;;14.90;77.10;;;;;;5040782;28;20434;-75
2023/07/23 03:10:40;;;;;;;7.93;7.17;;;14.90;76.50;;;;;;5023428;28;20504;-77
2023/07/23 03:13:08;;;;;;;7.83;7.23;;;14.90;76.70;;;;;;5023066;28;20681;-78
2023/07/23 03:15:35;;;;;;;7.57;6.87;;;14.80;76.60;;;;;;5022964;28;20686;-78
2023/07/23 03:18:03;;;;;;;7.50;6.90;;;14.80;76.40;;;;;;5040718;28;20441;-79
2023/07/23 03:20:30;;;;;;;8.23;7.43;;;14.90;76.40;;;;;;5040495;28;20439;-76
2023/07/23 03:22:57;;;;;;;7.63;6.93;;;14.90;76.50;;;;;;5040320;28;20508;-79
2023/07/23 03:25:25;;;;;;;7.53;6.93;;;15.00;76.40;;;;;;5039016;28;20497;-77
2023/07/23 03:27:52;;;;;;;7.40;6.80;;;15.00;76.50;;;;;;5040124;28;20609;-76
2023/07/23 03:30:19;;;;;;;7.90;7.23;;;15.10;76.20;;;;;;5040043;28;20452;-78
2023/07/23 03:32:46;;;;;;;7.73;7.10;;;15.20;75.70;;;;;;5040423;28;20408;-77
2023/07/23 03:35:13;;;;;;;7.97;7.27;;;15.20;75.90;;;;;;5041833;28;20443;-76
2023/07/23 03:37:40;;;;;;;8.47;7.43;;;15.20;75.70;;;;;;5040828;28;20476;-80
2023/07/23 03:40:07;;;;;;;10.63;7.50;;;15.20;75.60;;;;;;5040385;28;20621;-76
2023/07/23 03:42:34;;;;;;;7.57;6.87;;;15.20;75.60;;;;;;5040424;28;20627;-77
2023/07/23 03:45:01;;;;;;;7.90;7.10;;;15.30;75.30;;;;;;5040919;28;20509;-77
2023/07/23 03:47:28;;;;;;;7.30;6.67;;;15.30;75.20;;;;;;5040610;28;20653;-76
2023/07/23 03:49:55;;;;;;;7.80;7.10;;;15.30;75.00;;;;;;5040160;28;20434;-79
2023/07/23 03:52:22;;;;;;;7.33;6.73;;;15.30;75.20;;;;;;5039263;28;20487;-75
2023/07/23 03:54:50;;;;;;;7.53;6.83;;;15.30;75.00;;;;;;5039978;28;20519;-77
2023/07/23 03:57:16;;;;;;;6.93;6.33;;;15.30;75.50;;;;;;5039988;28;20465;-77
2023/07/23 03:59:45;;;;;;;9.40;6.30;;;15.40;75.60;;;;;;5040120;28;20441;-78
2023/07/23 04:02:12;;;;;;;8.30;6.93;;;15.40;75.30;;;;;;5040081;28;20787;-77
2023/07/23 04:04:40;;;;;;;6.33;5.83;;;15.50;75.00;;;;;;5040606;28;20420;-78
2023/07/23 04:07:08;;;;;;;7.67;6.90;;;15.30;75.50;;;;;;5040670;28;20446;-78
2023/07/23 04:09:36;;;;;;;6.30;5.67;;;15.30;76.00;;;;;;5039977;28;20474;-80
2023/07/23 04:12:04;;;;;;;7.80;7.10;;;15.30;75.50;;;;;;5042509;28;20700;-79
2023/07/23 04:14:32;;;;;;;7.73;7.07;;;15.40;74.70;;;;;;5042309;28;20553;-77
2023/07/23 04:16:59;;;;;;;8.33;7.40;;;15.50;74.60;;;;;;5043728;28;20501;-77
2023/07/23 04:19:26;;;;;;;7.77;6.63;;;15.50;75.00;;;;;;5043566;28;20441;-78
2023/07/23 04:21:56;;;;;;;7.10;6.47;;;15.60;74.50;;;;;;5044296;28;20455;-79
2023/07/23 04:24:23;;;;;;;6.40;5.80;;;15.70;74.60;;;;;;5044013;28;20437;-76
2023/07/23 04:26:50;;;;;;;6.67;6.07;;;15.80;73.10;;;;;;5042756;28;20400;-76
2023/07/23 04:29:17;;;;;;;7.13;6.53;;;15.90;72.80;;;;;;5043867;28;20436;-78
2023/07/23 04:31:44;;;;;;;6.70;6.10;;;16.00;72.70;;;;;;5026588;28;20501;-76
2023/07/23 04:34:11;;;;;;;6.47;5.97;;;16.10;72.30;;;;;;5044171;28;20833;-77
2023/07/23 04:36:38;;;;;;;6.97;6.37;;;16.20;71.90;;;;;;5043628;28;20414;-77
2023/07/23 04:39:05;;;;;;;8.27;7.37;;;16.30;71.70;;;;;;5044009;28;20477;-78
2023/07/23 04:41:32;;;;;;;8.53;5.53;;;16.40;71.30;;;;;;5054378;28;20468;-82
2023/07/23 04:43:59;;;;;;;6.03;5.53;;;16.60;71.20;;;;;;5057116;28;20473;-83
2023/07/23 04:46:26;;;;;;;7.53;5.80;;;16.70;70.20;;;;;;5033237;28;20837;-78
2023/07/23 04:48:54;;;;;;;5.83;5.33;;;16.80;70.30;;;;;;5043860;28;20465;-76
2023/07/23 04:51:22;;;;;;;6.10;5.50;;;16.90;69.70;;;;;;5042124;28;20450;-77
2023/07/23 04:53:50;;;;;;;6.50;5.80;;;17.10;70.00;;;;;;5043331;28;20443;-76
2023/07/23 04:56:16;;;;;;;7.07;6.47;;;17.20;68.60;;;;;;5042404;28;20483;-78
2023/07/23 04:58:43;;;;;;;6.17;5.67;;;17.20;68.70;;;;;;5043583;28;20412;-80
2023/07/23 05:01:12;;;;;;;6.00;5.47;;;17.30;68.20;;;;;;5043438;28;20430;-75
2023/07/23 05:03:40;;;;;;;5.97;5.43;;;17.30;68.00;;;;;;5043115;28;20416;-76
2023/07/23 05:06:07;;;;;;;5.60;5.20;;;17.20;68.50;;;;;;5041685;28;20437;-77
2023/07/23 05:08:35;;;;;;;6.83;5.20;;;17.30;69.90;;;;;;5043106;28;20484;-76
2023/07/23 05:11:04;;;;;;;7.13;6.47;;;17.40;69.30;;;;;;5042793;28;20477;-76
2023/07/23 05:13:33;;;;;;;6.30;5.70;;;17.80;69.00;;;;;;5042683;28;20471;-77
2023/07/23 05:16:05;;;;;;;6.77;6.07;;;17.90;68.10;;;;;;5042543;28;20544;-76
2023/07/23 05:18:32;;;;;;;6.47;5.80;;;18.10;66.10;;;;;;5042240;28;20463;-78
2023/07/23 05:21:02;;;;;;;6.50;5.90;;;18.30;65.80;;;;;;5042492;28;20745;-77
2023/07/23 05:23:29;;;;;;;6.70;6.00;;;18.40;64.30;;;;;;5042284;28;20468;-77
2023/07/23 05:25:56;;;;;;;6.43;5.83;;;18.70;64.00;;;;;;5042746;28;20466;-81
2023/07/23 05:28:24;;;;;;;6.10;5.50;;;18.80;63.80;;;;;;5042722;28;20949;-77
2023/07/23 05:30:57;;;;;;;5.40;5.00;;;18.90;63.10;;;;;;5042047;28;20509;-78
2023/07/23 05:33:25;;;;;;;8.13;5.80;;;19.00;63.10;;;;;;5042472;28;20835;-76
2023/07/23 05:35:52;;;;;;;5.93;5.43;;;19.10;63.00;;;;;;5042223;28;20633;-79
2023/07/23 05:38:19;;;;;;;6.40;5.77;;;19.10;63.10;;;;;;5042250;28;20408;-77
2023/07/23 05:40:57;;;;;;;5.90;5.40;;;19.40;62.20;;;;;;5042266;28;20457;-77
2023/07/23 05:43:25;;;;;;;7.60;4.87;;;19.40;61.20;;;;;;5042099;28;20500;-77
2023/07/23 05:45:58;;;;;;;9.00;5.47;;;19.30;62.80;;;;;;5042486;28;20424;-80
2023/07/23 05:48:25;;;;;;;5.93;5.40;;;19.40;62.30;;;;;;5042058;28;20513;-77
2023/07/23 05:50:52;;;;;;;6.07;5.20;;;19.50;62.70;;;;;;5042257;28;20446;-76
2023/07/23 05:53:20;;;;;;;6.10;5.10;;;19.70;61.70;;;;;;5042163;28;20501;-77
2023/07/23 05:55:46;;;;;;;4.93;4.53;;;19.80;60.80;;;;;;5042249;28;20459;-80
2023/07/23 05:58:14;;;;;;;5.57;5.17;;;20.10;60.40;;;;;;5042281;28;20767;-76
2023/07/23 06:00:40;;;;;;;5.43;5.03;;;20.40;59.60;;;;;;5041520;28;20412;-76
2023/07/23 06:03:08;;;;;;;5.43;5.03;;;20.70;59.30;;;;;;5041734;28;20442;-78
2023/07/23 06:05:35;;;;;;;7.07;5.80;;;21.00;59.70;;;;;;5041653;28;20408;-76
2023/07/23 06:08:02;;;;;;;4.90;4.50;;;21.00;58.00;;;;;;5041657;28;20405;-76
2023/07/23 06:10:29;;;;;;;5.23;4.70;;;21.00;57.70;;;;;;5041863;28;20627;-76
2023/07/23 06:12:56;;;;;;;5.43;5.03;;;21.20;58.10;;;;;;5042438;28;20501;-77
2023/07/23 06:15:23;;;;;;;5.90;5.30;;;21.30;58.50;;;;;;5041526;28;20501;-76
2023/07/23 06:17:50;;;;;;;5.43;4.93;;;21.50;57.40;;;;;;5041622;28;20407;-76
2023/07/23 06:20:17;;;;;;;5.00;4.60;;;21.60;57.20;;;;;;5041351;28;20404;-76
2023/07/23 06:22:44;;;;;;;5.40;5.00;;;22.00;56.50;;;;;;5041594;28;20458;-77
2023/07/23 06:25:11;;;;;;;5.33;4.73;;;22.20;56.20;;;;;;5041221;28;20457;-76
2023/07/23 06:27:38;;;;;;;5.37;4.87;;;22.40;56.20;;;;;;5041398;28;20622;-78
2023/07/23 06:30:07;;;;;;;6.30;4.63;;;22.80;54.10;;;;;;5023424;28;20404;-78
2023/07/23 06:32:34;;;;;;;5.30;4.80;;;23.40;53.20;;;;;;5040417;28;20747;-76
2023/07/23 06:35:01;;;;;;;5.40;5.00;;;23.90;52.20;;;;;;5041019;28;20536;-75
2023/07/23 06:37:31;;;;;;;6.10;5.00;;;24.20;51.10;;;;;;5040702;28;20438;-79
2023/07/23 06:39:58;;;;;;;5.27;4.70;;;24.20;51.30;;;;;;5040779;28;20461;-77
2023/07/23 06:42:26;;;;;;;4.90;4.50;;;24.60;50.70;;;;;;5039701;28;20484;-77
2023/07/23 06:44:52;;;;;;;5.30;4.90;;;24.50;48.30;;;;;;5040698;28;20437;-77
2023/07/23 06:47:20;;;;;;;6.77;6.27;;;24.70;50.30;;;;;;5041424;28;20445;-76
2023/07/23 06:49:46;;;;;;;5.40;5.00;;;24.40;49.70;;;;;;5041265;28;20488;-78
2023/07/23 06:52:14;;;;;;;5.70;4.70;;;24.50;49.40;;;;;;5040942;28;20825;-79
2023/07/23 06:54:42;;;;;;;4.23;3.93;;;24.40;49.20;;;;;;5040651;28;20469;-76
2023/07/23 06:57:09;;;;;;;5.40;4.90;;;24.50;50.00;;;;;;5040783;28;20442;-75
2023/07/23 06:59:37;;;;;;;5.37;4.83;;;24.40;48.90;;;;;;5040303;28;20433;-78
2023/07/23 07:02:04;;;;;;;4.40;4.10;;;24.60;48.70;;;;;;5040555;28;20443;-76
2023/07/23 07:04:32;;;;;;;4.53;4.23;;;25.00;48.10;;;;;;5040423;28;20612;-77
2023/07/23 07:06:59;;;;;;;4.50;4.10;;;25.80;46.90;;;;;;5040889;28;20517;-76
2023/07/23 07:09:26;;;;;;;7.33;6.73;;;26.70;44.80;;;;;;5041058;28;20426;-77
2023/07/23 07:11:54;;;;;;;4.43;4.00;;;26.70;43.60;;;;;;5040729;28;20437;-75
2023/07/23 07:14:21;;;;;;;5.57;3.53;;;26.20;42.80;;;;;;5040658;28;20473;-77
2023/07/23 07:16:48;;;;;;;4.53;4.13;;;26.20;42.50;;;;;;5040590;28;20437;-77
2023/07/23 07:19:16;;;;;;;4.43;4.03;;;26.00;42.80;;;;;;5040650;28;20468;-77
2023/07/23 07:21:44;;;;;;;4.50;4.10;;;25.90;43.20;;;;;;5040752;28;20473;-76
2023/07/23 07:24:12;;;;;;;4.47;4.17;;;26.10;42.70;;;;;;5039167;28;20469;-75
2023/07/23 07:26:39;;;;;;;4.90;4.23;;;26.00;43.10;;;;;;5040681;28;20480;-77
2023/07/23 07:29:06;;;;;;;4.97;4.57;;;26.00;42.80;;;;;;5040535;28;20462;-77
2023/07/23 07:31:33;;;;;;;5.13;4.63;;;26.00;42.90;;;;;;5040396;28;20480;-74
2023/07/23 07:34:02;;;;;;;4.37;3.93;;;25.80;43.70;;;;;;5040094;28;20670;-76
2023/07/23 07:36:29;;;;;;;6.83;4.83;;;26.00;44.00;;;;;;5023076;28;20508;-77
2023/07/23 07:38:57;;;;;;;11.23;5.33;;;26.30;43.40;;;;;;5040575;28;20442;-77
2023/07/23 07:41:24;;;;;;;4.23;3.93;;;26.60;42.50;;;;;;5040560;28;20416;-77
2023/07/23 07:43:51;;;;;;;4.93;4.43;;;26.70;42.20;;;;;;5041164;28;20440;-76
2023/07/23 07:46:18;;;;;;;4.33;3.93;;;26.60;42.30;;;;;;5043804;28;20690;-77
2023/07/23 07:48:46;;;;;;;5.17;4.33;;;26.40;42.30;;;;;;5043796;28;20453;-75
2023/07/23 07:51:12;;;;;;;4.80;4.47;;;26.40;42.80;;;;;;5043832;28;20532;-76
2023/07/23 07:53:40;;;;;;;4.67;4.27;;;26.40;42.50;;;;;;5044282;28;20421;-75
2023/07/23 07:56:13;;;;;;;4.03;3.73;;;26.30;42.90;;;;;;5044820;28;20529;-75
2023/07/23 07:58:41;;;;;;;6.90;4.33;;;26.70;41.70;;;;;;5049649;28;20441;-76
2023/07/23 08:01:08;;;;;;;5.40;3.70;;;26.30;41.90;;;;;;5046013;28;20495;-77
2023/07/23 08:03:36;;;;;;;4.10;3.70;;;26.20;42.50;;;;;;5050833;28;20472;-76
2023/07/23 08:06:03;;;;;;;4.37;3.97;;;26.30;41.90;;;;;;5053295;28;20453;-78
2023/07/23 08:08:34;;;;;;;4.57;4.17;;;26.20;42.10;;;;;;5050110;28;20548;-75
2023/07/23 08:11:03;;;;;;;4.67;4.30;;;26.40;41.40;;;;;;5043514;28;20769;-76
2023/07/23 08:13:30;;;;;;;5.13;4.67;;;26.10;42.20;;;;;;5043153;28;20497;-76
2023/07/23 08:15:59;;;;;;;4.03;3.73;;;26.20;42.30;;;;;;5043236;28;20501;-76
2023/07/23 08:18:26;;;;;;;4.17;3.87;;;26.20;41.80;;;;;;5043744;28;20534;-76
2023/07/23 08:20:57;;;;;;;6.70;4.20;;;26.10;42.50;;;;;;5045012;28;20754;-76
2023/07/23 08:23:25;;;;;;;5.23;4.73;;;26.20;42.70;;;;;;5043304;28;20635;-76
2023/07/23 08:25:58;;;;;;;5.87;5.30;;;26.20;41.60;;;;;;5026760;28;20493;-76
2023/07/23 08:28:31;;;;;;;8.27;4.20;;;26.30;42.40;;;;;;5026480;28;20436;-76
2023/07/23 08:31:00;;;;;;;7.13;4.37;;;26.60;41.00;;;;;;5043507;28;20448;-78
2023/07/23 08:33:29;;;;;;;4.77;4.37;;;26.30;41.80;;;;;;5043635;28;20434;-76
2023/07/23 08:35:57;;;;;;;4.40;4.10;;;26.90;41.10;;;;;;5043366;28;20477;-76
2023/07/23 08:38:25;;;;;;;4.93;4.43;;;28.50;37.80;;;;;;5043507;28;20437;-76
2023/07/23 08:40:58;;;;;;;4.57;4.17;;;29.90;34.90;;;;;;5025751;28;20601;-74
2023/07/23 08:43:43;;;;;;;4.77;4.47;;;30.40;34.20;;;;;;5043662;28;20433;-77
2023/07/23 08:46:20;;;;;;;3.50;3.27;;;30.20;33.90;;;;;;5044224;28;20410;-76
2023/07/23 08:48:47;;;;;;;4.63;4.23;;;29.60;34.60;;;;;;5043609;28;20410;-77
2023/07/23 08:51:15;;;;;;;4.17;3.80;;;30.20;34.60;;;;;;5043117;28;20513;-76
2023/07/23 08:53:42;;;;;;;4.37;4.07;;;30.50;33.90;;;;;;5043945;28;20433;-75
2023/07/23 08:56:09;;;;;;;5.27;4.87;;;31.10;32.50;;;;;;5043444;28;20541;-76
2023/07/23 08:58:38;;;;;;;5.10;4.60;;;31.40;33.00;;;;;;5042359;28;20500;-76
2023/07/23 09:01:06;;;;;;;5.70;4.37;;;31.80;32.20;;;;;;5043303;28;20720;-76
2023/07/23 09:03:34;;;;;;;5.27;4.30;;;32.10;32.40;;;;;;5042837;28;20446;-76
2023/07/23 09:06:00;;;;;;;4.33;4.00;;;31.50;31.90;;;;;;5025399;28;20817;-76
2023/07/23 09:08:27;;;;;;;8.10;4.53;;;31.10;32.60;;;;;;5026392;28;20445;-77
2023/07/23 09:10:55;;;;;;;5.00;4.60;;;30.90;32.60;;;;;;5042909;28;20434;-77
2023/07/23 09:13:23;;;;;;;4.33;4.03;;;31.30;32.60;;;;;;5042730;28;20489;-76
2023/07/23 09:15:54;;;;;;;4.77;4.07;;;32.10;30.60;;;;;;5026681;28;20512;-77
2023/07/23 09:18:22;;;;;;;4.97;4.57;;;32.50;29.20;;;;;;5043267;28;20434;-77
2023/07/23 09:20:50;;;;;;;5.03;4.53;;;32.00;29.80;;;;;;5042793;28;20529;-76
2023/07/23 09:23:17;;;;;;;4.17;3.77;;;31.70;30.00;;;;;;5043375;28;20461;-76
2023/07/23 09:25:46;;;;;;;4.87;4.47;;;31.20;30.00;;;;;;5041533;28;20441;-76
2023/07/23 09:28:23;;;;;;;5.60;3.57;;;30.70;30.10;;;;;;5043049;28;20442;-76
2023/07/23 09:30:59;;;;;;;4.87;4.50;;;30.50;31.50;;;;;;5043207;28;20501;-77
2023/07/23 09:33:44;;;;;;;7.87;4.43;;;30.60;32.40;;;;;;5042732;28;20501;-76
2023/07/23 09:36:11;;;;;;;4.30;4.00;;;30.20;32.00;;;;;;5042148;28;20481;-76
2023/07/23 09:38:45;;;;;;;4.97;4.50;;;29.80;32.50;;;;;;5042407;28;20434;-76
2023/07/23 09:41:12;;;;;;;4.50;4.10;;;29.50;33.10;;;;;;5041839;28;20489;-77
2023/07/23 09:43:42;;;;;;;5.67;5.17;;;29.80;33.00;;;;;;5009153;28;20750;-76
2023/07/23 09:46:09;;;;;;;5.30;4.70;;;29.90;32.90;;;;;;5042012;28;20468;-79
2023/07/23 09:48:50;;;;;;;5.30;4.80;;;30.10;33.30;;;;;;5042346;28;20433;-77
2023/07/23 09:51:19;;;;;;;4.83;4.43;;;30.10;32.40;;;;;;5045718;28;20442;-79
2023/07/23 09:53:46;;;;;;;6.43;4.40;;;30.00;32.90;;;;;;5042724;28;20490;-75
2023/07/23 09:56:18;;;;;;;4.97;4.57;;;30.00;31.70;;;;;;5042654;28;20524;-75
2023/07/23 09:58:47;;;;;;;6.50;5.90;;;29.80;31.90;;;;;;5042029;28;20509;-76
2023/07/23 10:01:16;;;;;;;5.17;4.70;;;30.00;32.60;;;;;;5042228;28;20695;-76
2023/07/23 10:03:44;;;;;;;4.77;4.37;;;30.30;32.30;;;;;;5024454;28;20618;-78
2023/07/23 10:06:14;;;;;;;4.33;3.93;;;30.30;32.20;;;;;;5024161;28;20540;-79
2023/07/23 10:08:43;;;;;;;6.17;4.70;;;29.80;34.00;;;;;;5023695;28;20515;-76
2023/07/23 10:11:12;;;;;;;4.20;3.90;;;29.90;33.90;;;;;;5042044;28;20564;-77
2023/07/23 10:13:40;;;;;;;5.63;4.50;;;29.80;33.60;;;;;;5041960;28;20714;-77
2023/07/23 10:16:22;;;;;;;4.33;3.93;;;29.50;33.80;;;;;;5041731;28;20701;-77
2023/07/23 10:18:53;;;;;;;5.17;4.67;;;29.40;34.30;;;;;;5041608;28;20680;-76
2023/07/23 10:21:20;;;;;;;4.20;3.80;;;29.50;35.00;;;;;;5042024;28;20464;-77
2023/07/23 10:23:56;;;;;;;4.03;3.73;;;29.60;34.40;;;;;;5041920;28;20623;-76
2023/07/23 10:26:25;;;;;;;4.37;3.90;;;29.90;34.20;;;;;;5024261;28;20433;-77
2023/07/23 10:28:57;;;;;;;5.33;4.80;;;30.10;33.20;;;;;;5041859;28;20430;-77
2023/07/23 10:31:28;;;;;;;5.30;4.33;;;29.70;34.90;;;;;;5041968;28;20429;-77
2023/07/23 10:33:55;;;;;;;5.20;4.80;;;29.80;34.40;;;;;;5042079;28;20429;-78
2023/07/23 10:36:23;;;;;;;4.63;4.03;;;29.60;35.30;;;;;;5041692;28;20698;-77
2023/07/23 10:39:18;;;;;;;4.77;4.37;;;29.70;34.30;;;;;;5041561;28;20434;-77
2023/07/23 10:41:55;;;;;;;3.90;3.60;;;29.40;34.70;;;;;;5041201;28;20461;-76
2023/07/23 10:44:43;;;;;;;4.23;3.93;;;29.20;36.00;;;;;;5041443;28;20453;-75
2023/07/23 10:47:30;;;;;;;4.60;4.20;;;29.70;35.00;;;;;;5040537;28;20461;-76
2023/07/23 10:50:14;;;;;;;4.00;3.70;;;29.90;34.10;;;;;;5023603;28;20429;-77
2023/07/23 10:52:45;;;;;;;4.23;3.80;;;29.80;34.60;;;;;;5041868;28;20461;-75
2023/07/23 10:55:47;;;;;;;4.50;4.20;;;30.00;33.60;;;;;;5023587;28;20469;-76
2023/07/23 10:58:19;;;;;;;6.80;4.30;;;30.10;33.00;;;;;;5024094;28;20443;-76
2023/07/23 11:00:57;;;;;;;3.93;3.63;;;30.00;32.70;;;;;;5040832;28;20770;-78
2023/07/23 11:03:26;;;;;;;5.23;4.40;;;30.20;32.40;;;;;;5041297;28;20482;-76
2023/07/23 11:05:54;;;;;;;4.37;3.90;;;30.20;32.80;;;;;;5041056;28;20673;-79
2023/07/23 11:08:26;;;;;;;4.00;3.63;;;30.10;33.00;;;;;;5041225;28;20465;-77
2023/07/23 11:11:05;;;;;;;4.07;3.73;;;30.20;33.20;;;;;;5023721;28;20513;-77
2023/07/23 11:13:33;;;;;;;6.23;5.03;;;30.40;32.80;;;;;;5042008;28;20429;-79
2023/07/23 11:16:01;;;;;;;8.00;4.00;;;30.20;32.70;;;;;;5044588;28;20465;-78
2023/07/23 11:18:32;;;;;;;4.27;3.87;;;30.50;32.80;;;;;;5054053;28;20770;-78
2023/07/23 11:21:04;;;;;;;4.20;3.80;;;30.60;33.30;;;;;;5057587;28;20452;-77
2023/07/23 11:23:32;;;;;;;4.23;3.93;;;30.80;32.20;;;;;;5045466;28;20523;-76
2023/07/23 11:25:59;;;;;;;4.73;4.33;;;30.90;32.20;;;;;;5044938;28;20437;-76
2023/07/23 11:28:27;;;;;;;4.27;3.97;;;30.80;32.00;;;;;;5027674;28;20484;-79
2023/07/23 11:30:55;;;;;;;7.07;4.53;;;30.80;31.80;;;;;;5044719;28;20480;-76
2023/07/23 11:33:30;;;;;;;7.87;4.60;;;30.60;31.90;;;;;;5044743;28;20440;-76
2023/07/23 11:36:00;;;;;;;3.80;3.50;;;30.40;32.40;;;;;;5028138;28;20552;-76
2023/07/23 11:38:31;;;;;;;5.37;4.10;;;30.40;32.10;;;;;;5046653;28;20484;-76
2023/07/23 11:40:59;;;;;;;6.47;4.67;;;30.60;32.80;;;;;;5028423;28;20649;-76
2023/07/23 11:43:27;;;;;;;4.50;4.20;;;30.60;32.40;;;;;;5044625;28;20544;-77
2023/07/23 11:45:54;;;;;;;4.60;4.30;;;30.50;32.70;;;;;;5044250;28;20449;-77
2023/07/23 11:48:22;;;;;;;5.17;4.77;;;30.50;33.00;;;;;;5044491;28;20484;-78
2023/07/23 11:50:50;;;;;;;5.03;3.70;;;30.60;32.60;;;;;;5044983;28;20766;-80
2023/07/23 11:53:36;;;;;;;5.13;4.33;;;30.70;33.30;;;;;;5044193;28;20453;-78
2023/07/23 11:56:07;;;;;;;5.50;4.07;;;30.70;31.70;;;;;;5043169;28;20536;-78
2023/07/23 11:58:36;;;;;;;4.37;4.07;;;30.40;32.40;;;;;;5044291;28;20438;-77
2023/07/23 12:01:04;;;;;;;5.07;4.67;;;30.70;32.30;;;;;;5044267;28;20773;-78
2023/07/23 12:03:34;;;;;;;8.10;4.47;;;30.80;31.40;;;;;;5044335;28;20484;-75
2023/07/23 12:06:02;;;;;;;4.53;3.97;;;30.80;31.40;;;;;;5044051;28;20446;-77
2023/07/23 12:08:32;;;;;;;4.20;3.80;;;30.80;31.10;;;;;;5044064;28;20426;-78
2023/07/23 12:11:00;;;;;;;5.20;4.53;;;31.00;31.40;;;;;;5043512;28;20434;-77
2023/07/23 12:13:27;;;;;;;4.03;3.63;;;30.90;30.70;;;;;;5044241;28;20464;-79
2023/07/23 12:15:57;;;;;;;4.43;3.43;;;31.10;30.40;;;;;;5042673;28;20499;-77
2023/07/23 12:18:27;;;;;;;6.27;4.50;;;31.00;30.00;;;;;;5043968;28;20441;-76
2023/07/23 12:21:21;;;;;;;3.90;3.60;;;31.30;29.70;;;;;;5042703;28;20473;-78
2023/07/23 12:23:48;;;;;;;4.30;3.90;;;31.40;30.30;;;;;;5044070;28;20448;-77
2023/07/23 12:26:15;;;;;;;4.40;4.00;;;31.30;29.40;;;;;;5043707;28;20445;-77
2023/07/23 12:28:44;;;;;;;5.73;4.43;;;31.20;28.30;;;;;;5044274;28;20497;-76
2023/07/23 12:31:14;;;;;;;4.17;3.87;;;31.20;28.70;;;;;;5043467;28;20512;-77
2023/07/23 12:33:41;;;;;;;6.90;4.93;;;31.40;29.00;;;;;;5044342;28;20445;-76
2023/07/23 12:36:08;;;;;;;3.93;3.50;;;31.30;29.00;;;;;;5043471;28;20884;-76
2023/07/23 12:38:35;;;;;;;4.03;3.73;;;31.20;29.90;;;;;;5026615;28;20544;-76
2023/07/23 12:41:03;;;;;;;3.73;3.30;;;31.30;29.10;;;;;;5043511;28;20453;-77
2023/07/23 12:43:32;;;;;;;4.00;3.60;;;31.30;28.70;;;;;;5044372;28;20506;-79
2023/07/23 12:46:00;;;;;;;4.03;3.73;;;31.50;28.30;;;;;;5043651;28;20449;-77
2023/07/23 12:48:27;;;;;;;4.53;4.13;;;31.60;28.70;;;;;;5025940;28;20433;-77
2023/07/23 12:50:54;;;;;;;4.23;3.90;;;31.70;28.30;;;;;;5043936;28;20522;-77
2023/07/23 12:53:21;;;;;;;4.20;3.90;;;31.60;28.90;;;;;;5043440;28;20496;-77